createdAt,value
2022-10-29T00:02:06.314Z,12.15
2022-10-29T00:04:33.786Z,12.93
2022-10-29T00:07:01.547Z,11.60
2022-10-29T00:09:28.804Z,12.93
2022-10-29T00:11:56.131Z,10.88
2022-10-29T00:14:23.536Z,11.52
2022-10-29T00:16:50.840Z,11.60
2022-10-29T00:19:18.243Z,12.73
2022-10-29T00:21:45.633Z,13.07
2022-10-29T00:24:12.961Z,13.68
2022-10-29T00:26:40.311Z,13.40
2022-10-29T00:29:07.609Z,13.02
2022-10-29T00:31:34.937Z,14.27
2022-10-29T00:34:02.521Z,13.18
2022-10-29T00:36:30.809Z,13.82
2022-10-29T00:38:58.181Z,14.70
2022-10-29T00:41:27.185Z,14.88
2022-10-29T00:44:35.510Z,15.65
2022-10-29T00:47:23.288Z,15.20
2022-10-29T00:50:07.718Z,17.25
2022-10-29T00:52:37.311Z,16.80
2022-10-29T00:57:35.041Z,16.35
2022-10-29T01:00:02.630Z,15.43
2022-10-29T01:02:30.715Z,16.67
2022-10-29T01:04:58.154Z,18.30
2022-10-29T01:07:25.432Z,16.58
2022-10-29T01:09:52.787Z,17.17
2022-10-29T01:12:33.165Z,16.00
2022-10-29T01:15:19.372Z,17.23
2022-10-29T01:18:03.416Z,15.85
2022-10-29T01:20:30.778Z,16.42
2022-10-29T01:23:07.251Z,17.75
2022-10-29T01:25:38.304Z,16.48
2022-10-29T01:28:24.759Z,16.67
2022-10-29T01:31:03.603Z,17.17
2022-10-29T01:33:49.721Z,17.38
2022-10-29T01:36:26.597Z,17.45
2022-10-29T01:39:06.762Z,18.08
2022-10-29T01:41:34.096Z,17.67
2022-10-29T01:44:19.851Z,18.00
2022-10-29T01:46:55.255Z,17.65
2022-10-29T01:49:26.328Z,18.20
2022-10-29T01:51:54.899Z,19.52
2022-10-29T01:54:23.052Z,18.10
2022-10-29T01:56:57.342Z,17.23
2022-10-29T01:59:36.243Z,16.40
2022-10-29T02:02:22.260Z,18.60
2022-10-29T02:04:58.833Z,17.55
2022-10-29T02:07:44.967Z,16.88
2022-10-29T02:10:32.530Z,16.42
2022-10-29T02:13:00.700Z,16.77
2022-10-29T02:15:44.364Z,19.13
2022-10-29T02:18:11.913Z,17.60
2022-10-29T02:20:43.074Z,17.63
2022-10-29T02:23:10.623Z,17.25
2022-10-29T02:25:37.997Z,16.75
2022-10-29T02:28:05.548Z,16.70
2022-10-29T02:30:32.891Z,15.90
2022-10-29T02:33:00.334Z,15.32
2022-10-29T02:35:27.641Z,18.00
2022-10-29T02:37:55.131Z,16.05
2022-10-29T02:40:22.522Z,17.17
2022-10-29T02:42:49.893Z,17.15
2022-10-29T02:45:17.154Z,19.73
2022-10-29T02:47:44.541Z,19.70
2022-10-29T02:50:11.922Z,22.33
2022-10-29T02:52:39.183Z,20.40
2022-10-29T02:55:06.710Z,19.27
2022-10-29T02:57:33.986Z,19.88
2022-10-29T03:00:03.912Z,20.58
2022-10-29T03:02:31.264Z,19.80
2022-10-29T03:04:58.505Z,19.92
2022-10-29T03:07:25.819Z,20.60
2022-10-29T03:09:58.805Z,18.77
2022-10-29T03:12:28.877Z,19.42
2022-10-29T03:15:01.394Z,18.77
2022-10-29T03:17:28.895Z,18.48
2022-10-29T03:19:56.168Z,19.80
2022-10-29T03:22:23.521Z,20.10
2022-10-29T03:24:50.965Z,19.33
2022-10-29T03:27:18.453Z,20.92
2022-10-29T03:29:45.820Z,21.30
2022-10-29T03:32:13.286Z,24.48
2022-10-29T03:34:40.661Z,21.58
2022-10-29T03:37:07.987Z,23.13
2022-10-29T03:39:44.997Z,23.13
2022-10-29T03:42:12.294Z,22.52
2022-10-29T03:44:39.675Z,23.02
2022-10-29T03:47:09.290Z,27.17
2022-10-29T03:49:36.790Z,24.77
2022-10-29T03:52:04.214Z,26.98
2022-10-29T03:54:31.587Z,24.55
2022-10-29T03:56:59.009Z,25.77
2022-10-29T03:59:26.464Z,26.48
2022-10-29T04:01:53.900Z,24.58
2022-10-29T04:04:21.398Z,28.00
2022-10-29T04:06:48.797Z,28.05
2022-10-29T04:09:16.275Z,30.27
2022-10-29T04:11:43.652Z,27.63
2022-10-29T04:14:11.048Z,28.30
2022-10-29T04:16:38.389Z,27.40
2022-10-29T04:19:05.841Z,29.50
2022-10-29T04:30:03.113Z,30.27
2022-10-29T04:32:31.310Z,29.58
2022-10-29T04:35:00.744Z,31.95
2022-10-29T04:39:59.237Z,31.25
2022-10-29T04:42:27.108Z,33.22
2022-10-29T04:44:57.336Z,32.80
2022-10-29T04:47:24.767Z,31.75
2022-10-29T04:49:52.161Z,32.25
2022-10-29T04:52:19.697Z,34.60
2022-10-29T04:54:47.082Z,32.47
2022-10-29T04:57:14.494Z,30.23
2022-10-29T04:59:44.599Z,33.22
2022-10-29T05:02:11.980Z,31.80
2022-10-29T05:04:39.302Z,31.27
2022-10-29T05:07:06.705Z,34.58
2022-10-29T05:09:34.220Z,35.30
2022-10-29T05:12:01.589Z,34.95
2022-10-29T05:14:28.915Z,35.42
2022-10-29T05:16:56.377Z,35.83
2022-10-29T05:19:23.769Z,35.75
2022-10-29T05:21:51.166Z,34.83
2022-10-29T05:24:18.504Z,34.60
2022-10-29T05:26:48.468Z,36.03
2022-10-29T05:29:15.814Z,36.38
2022-10-29T05:31:46.048Z,35.15
2022-10-29T05:34:13.383Z,36.08
2022-10-29T05:36:43.482Z,33.97
2022-10-29T05:39:10.819Z,33.33
2022-10-29T05:41:40.514Z,32.05
2022-10-29T05:44:08.951Z,31.73
2022-10-29T05:46:37.161Z,31.07
2022-10-29T05:49:04.565Z,30.13
2022-10-29T05:51:32.161Z,30.63
2022-10-29T05:53:59.477Z,30.65
2022-10-29T05:56:26.794Z,31.70
2022-10-29T05:58:54.279Z,30.35
2022-10-29T06:01:24.639Z,29.90
2022-10-29T06:06:21.876Z,29.33
2022-10-29T06:08:49.235Z,31.40
2022-10-29T06:11:16.549Z,29.33
2022-10-29T06:13:43.936Z,31.50
2022-10-29T06:16:11.326Z,30.67
2022-10-29T06:18:40.059Z,29.95
2022-10-29T06:21:07.532Z,29.83
2022-10-29T06:23:35.132Z,30.02
2022-10-29T06:26:03.535Z,29.83
2022-10-29T06:28:33.736Z,28.08
2022-10-29T06:31:02.992Z,31.33
2022-10-29T06:33:30.303Z,28.63
2022-10-29T06:36:01.434Z,29.27
2022-10-29T06:38:28.897Z,29.73
2022-10-29T06:40:56.454Z,28.52
2022-10-29T06:43:23.937Z,30.40
2022-10-29T06:45:51.571Z,30.08
2022-10-29T06:48:22.025Z,30.08
2022-10-29T06:50:49.867Z,31.08
2022-10-29T06:53:19.056Z,31.83
2022-10-29T06:55:46.430Z,30.73
2022-10-29T06:58:15.074Z,31.92
2022-10-29T07:00:43.143Z,30.43
2022-10-29T07:03:23.405Z,29.88
2022-10-29T07:05:56.471Z,31.80
2022-10-29T07:08:24.079Z,29.40
2022-10-29T07:10:53.555Z,30.63
2022-10-29T07:13:21.263Z,32.15
2022-10-29T07:15:48.704Z,31.65
2022-10-29T07:18:19.168Z,30.75
2022-10-29T07:20:46.883Z,30.75
2022-10-29T07:23:14.729Z,33.08
2022-10-29T07:25:42.568Z,34.95
2022-10-29T07:28:14.407Z,34.50
2022-10-29T07:30:41.790Z,32.65
2022-10-29T07:33:09.185Z,31.38
2022-10-29T07:35:36.776Z,31.00
2022-10-29T07:38:10.028Z,32.20
2022-10-29T07:40:38.934Z,28.95
2022-10-29T07:43:06.372Z,35.78
2022-10-29T07:45:34.171Z,36.92
2022-10-29T07:48:11.087Z,35.30
2022-10-29T07:50:39.506Z,34.20
2022-10-29T07:53:07.934Z,34.85
2022-10-29T07:55:35.539Z,38.38
2022-10-29T07:58:04.448Z,34.45
2022-10-29T08:00:34.386Z,35.20
2022-10-29T08:03:01.725Z,36.35
2022-10-29T08:05:33.006Z,37.78
2022-10-29T08:08:00.806Z,41.08
2022-10-29T08:10:29.037Z,38.20
2022-10-29T08:12:57.990Z,42.95
2022-10-29T08:15:26.203Z,42.10
2022-10-29T08:17:54.037Z,45.90
2022-10-29T08:20:22.575Z,44.08
2022-10-29T08:22:50.362Z,45.13
2022-10-29T08:25:18.615Z,42.58
2022-10-29T08:28:05.475Z,40.33
2022-10-29T08:30:33.259Z,41.40
2022-10-29T08:33:01.677Z,42.40
2022-10-29T08:35:31.705Z,41.10
2022-10-29T08:37:59.277Z,41.42
2022-10-29T08:40:35.746Z,42.03
2022-10-29T08:43:22.059Z,40.55
2022-10-29T08:45:50.914Z,39.85
2022-10-29T08:48:30.617Z,40.88
2022-10-29T08:51:21.447Z,37.47
2022-10-29T08:53:58.899Z,35.97
2022-10-29T08:56:38.134Z,38.13
2022-10-29T08:59:11.809Z,36.22
2022-10-29T09:01:43.069Z,35.03
2022-10-29T09:04:19.665Z,36.38
2022-10-29T09:06:56.456Z,34.78
2022-10-29T09:09:42.658Z,33.47
2022-10-29T09:12:22.248Z,31.33
2022-10-29T09:15:08.468Z,31.52
2022-10-29T09:17:51.305Z,32.00
2022-10-29T09:20:38.606Z,28.58
2022-10-29T09:23:05.916Z,27.45
2022-10-29T09:25:44.462Z,24.40
2022-10-29T09:28:33.997Z,26.50
2022-10-29T09:31:04.472Z,26.45
2022-10-29T09:33:32.955Z,26.52
2022-10-29T09:36:00.969Z,25.40
2022-10-29T09:38:33.520Z,25.27
2022-10-29T09:41:01.761Z,23.90
2022-10-29T09:43:41.362Z,24.08
2022-10-29T09:46:34.462Z,23.45
2022-10-29T09:49:12.127Z,21.65
2022-10-29T09:51:40.239Z,22.88
2022-10-29T09:54:07.763Z,22.08
2022-10-29T09:56:35.251Z,22.38
2022-10-29T09:59:19.806Z,21.92
2022-10-29T10:01:50.832Z,21.20
2022-10-29T10:04:23.425Z,23.13
2022-10-29T10:07:13.446Z,22.40
2022-10-29T10:09:54.617Z,22.67
2022-10-29T10:12:26.976Z,21.23
2022-10-29T10:15:27.325Z,23.73
2022-10-29T10:17:56.679Z,21.90
2022-10-29T10:20:32.769Z,22.27
2022-10-29T10:23:00.529Z,24.10
2022-10-29T10:25:40.956Z,21.92
2022-10-29T10:28:19.412Z,21.55
2022-10-29T10:31:07.049Z,18.33
2022-10-29T10:33:35.829Z,16.75
2022-10-29T10:36:05.999Z,17.10
2022-10-29T10:38:40.927Z,18.42
2022-10-29T10:41:12.397Z,18.10
2022-10-29T10:43:44.841Z,18.70
2022-10-29T10:46:19.604Z,14.70
2022-10-29T10:49:07.682Z,14.02
2022-10-29T10:51:46.290Z,13.85
2022-10-29T10:54:34.190Z,12.67
2022-10-29T10:57:02.939Z,12.75
2022-10-29T10:59:36.241Z,12.50
2022-10-29T11:02:15.607Z,12.68
2022-10-29T11:04:44.355Z,11.38
2022-10-29T11:07:13.548Z,11.82
2022-10-29T11:10:01.250Z,11.73
2022-10-29T11:12:38.163Z,10.88
2022-10-29T11:15:34.687Z,11.60
2022-10-29T11:18:11.621Z,11.98
2022-10-29T11:20:41.906Z,10.95
2022-10-29T11:23:28.122Z,11.88
2022-10-29T11:26:08.002Z,10.77
2022-10-29T11:28:48.143Z,9.88
2022-10-29T11:31:27.591Z,10.30
2022-10-29T11:34:07.798Z,9.05
2022-10-29T11:36:48.372Z,9.07
2022-10-29T11:39:18.886Z,9.68
2022-10-29T11:41:59.633Z,10.38
2022-10-29T11:44:28.007Z,9.20
2022-10-29T11:46:55.401Z,10.03
2022-10-29T11:49:41.664Z,9.32
2022-10-29T11:52:11.151Z,9.80
2022-10-29T11:54:42.992Z,9.00
2022-10-29T11:57:10.327Z,8.38
2022-10-29T11:59:56.596Z,8.85
2022-10-29T12:02:24.053Z,9.32
2022-10-29T12:04:57.538Z,9.07
2022-10-29T12:07:35.897Z,8.82
2022-10-29T12:10:22.171Z,9.97
2022-10-29T12:12:49.533Z,9.43
2022-10-29T12:15:16.826Z,10.82
2022-10-29T12:17:55.496Z,8.73
2022-10-29T12:20:37.242Z,9.63
2022-10-29T12:23:18.827Z,10.15
2022-10-29T12:26:00.277Z,9.85
2022-10-29T12:28:39.062Z,9.48
2022-10-29T12:31:21.691Z,9.43
2022-10-29T12:33:59.092Z,9.18
2022-10-29T12:36:29.530Z,8.25
2022-10-29T12:38:58.270Z,10.05
2022-10-29T12:41:44.691Z,7.95
2022-10-29T12:44:47.800Z,8.25
2022-10-29T12:47:39.570Z,7.72
2022-10-29T12:50:22.382Z,8.02
2022-10-29T12:53:08.062Z,8.13
2022-10-29T12:55:49.760Z,7.32
2022-10-29T12:58:46.104Z,7.13
2022-10-29T13:02:09.624Z,8.35
2022-10-29T13:04:34.634Z,6.72
2022-10-29T13:07:03.512Z,7.75
2022-10-29T13:09:33.537Z,6.88
2022-10-29T13:12:02.497Z,7.30
2022-10-29T13:14:29.998Z,8.23
2022-10-29T13:16:57.789Z,7.18
2022-10-29T13:19:46.811Z,7.45
2022-10-29T13:22:14.124Z,8.75
2022-10-29T13:24:41.910Z,7.85
2022-10-29T13:27:18.328Z,8.43
2022-10-29T13:30:13.667Z,7.22
2022-10-29T13:32:41.079Z,7.80
2022-10-29T13:35:17.900Z,7.53
2022-10-29T13:37:48.090Z,7.95
2022-10-29T13:40:34.014Z,7.93
2022-10-29T13:43:03.509Z,7.78
2022-10-29T13:45:31.851Z,6.90
2022-10-29T13:48:13.383Z,7.93
2022-10-29T13:50:41.007Z,8.10
2022-10-29T13:56:40.318Z,9.05
2022-10-29T13:59:12.131Z,7.75
2022-10-29T14:01:41.620Z,8.30
2022-10-29T14:04:23.522Z,8.85
2022-10-29T14:06:52.316Z,8.45
2022-10-29T14:09:38.431Z,7.97
2022-10-29T14:12:11.081Z,8.80
2022-10-29T14:14:45.651Z,8.25
2022-10-29T14:17:20.107Z,8.80
2022-10-29T14:19:48.724Z,8.65
2022-10-29T14:22:22.339Z,7.90
2022-10-29T14:24:49.795Z,9.05
2022-10-29T14:27:17.138Z,8.60
2022-10-29T14:29:44.888Z,9.85
2022-10-29T14:32:21.061Z,9.13
2022-10-29T14:34:51.934Z,8.13
2022-10-29T14:37:22.383Z,8.77
2022-10-29T14:39:58.414Z,8.55
2022-10-29T14:42:36.605Z,9.07
2022-10-29T14:45:09.793Z,9.20
2022-10-29T14:47:38.567Z,9.02
2022-10-29T14:50:17.381Z,10.18
2022-10-29T14:52:56.347Z,9.88
2022-10-29T14:58:08.468Z,9.18
2022-10-29T15:00:37.282Z,8.98
2022-10-29T15:03:06.676Z,9.90
2022-10-29T15:05:36.567Z,9.98
2022-10-29T15:08:12.925Z,10.40
2022-10-29T15:10:47.282Z,9.80
2022-10-29T15:13:43.852Z,10.23
2022-10-29T15:16:18.725Z,9.25
2022-10-29T15:18:48.885Z,9.80
2022-10-29T15:21:42.747Z,8.43
2022-10-29T15:24:19.531Z,9.70
2022-10-29T15:26:53.124Z,9.63
2022-10-29T15:29:34.840Z,9.70
2022-10-29T15:32:04.680Z,8.98
2022-10-29T15:34:36.366Z,8.88
2022-10-29T15:37:19.370Z,10.10
2022-10-29T15:39:56.635Z,9.23
2022-10-29T15:42:26.320Z,9.77
2022-10-29T15:45:08.781Z,9.65
2022-10-29T15:50:42.610Z,9.77
2022-10-29T15:53:20.557Z,9.23
2022-10-29T15:55:51.908Z,10.10
2022-10-29T15:58:25.825Z,10.15
2022-10-29T16:00:55.717Z,9.38
2022-10-29T16:03:24.389Z,9.18
2022-10-29T16:05:55.383Z,9.73
2022-10-29T16:08:28.573Z,9.27
2022-10-29T16:10:56.922Z,9.43
2022-10-29T16:13:25.373Z,9.07
2022-10-29T16:15:55.182Z,9.43
2022-10-29T16:18:22.983Z,10.60
2022-10-29T16:20:52.753Z,9.73
2022-10-29T16:23:20.351Z,10.02
2022-10-29T16:25:47.814Z,10.18
2022-10-29T16:28:15.351Z,10.88
2022-10-29T16:30:42.922Z,10.70
2022-10-29T16:33:13.173Z,9.35
2022-10-29T16:35:46.011Z,9.57
2022-10-29T16:38:20.144Z,10.30
2022-10-29T16:41:00.421Z,9.77
2022-10-29T16:43:36.685Z,10.85
2022-10-29T16:46:47.110Z,10.40
2022-10-29T16:49:18.329Z,10.60
2022-10-29T16:51:49.951Z,11.35
2022-10-29T16:54:27.399Z,10.80
2022-10-29T16:56:58.153Z,10.98
2022-10-29T16:59:25.650Z,12.18
2022-10-29T17:01:53.103Z,11.25
2022-10-29T17:04:20.737Z,11.77
2022-10-29T17:06:49.872Z,10.70
2022-10-29T17:09:20.662Z,12.05
2022-10-29T17:11:50.607Z,12.15
2022-10-29T17:14:20.280Z,13.07
2022-10-29T17:16:47.942Z,11.15
2022-10-29T17:19:16.544Z,11.77
2022-10-29T17:21:44.113Z,12.95
2022-10-29T17:24:11.562Z,12.05
2022-10-29T17:26:39.647Z,12.45
2022-10-29T17:29:13.192Z,10.98
2022-10-29T17:31:43.967Z,12.52
2022-10-29T17:34:11.536Z,12.88
2022-10-29T17:36:43.344Z,12.07
2022-10-29T17:39:11.467Z,12.52
2022-10-29T17:41:39.288Z,12.80
2022-10-29T17:44:06.860Z,12.90
2022-10-29T17:46:38.505Z,13.98
2022-10-29T17:49:05.955Z,12.23
2022-10-29T17:51:34.132Z,12.23
2022-10-29T17:54:01.596Z,12.70
2022-10-29T17:59:23.343Z,15.20
2022-10-29T18:01:51.028Z,13.35
2022-10-29T18:04:18.452Z,13.40
2022-10-29T18:06:45.856Z,14.00
2022-10-29T18:09:17.225Z,15.52
2022-10-29T18:11:59.576Z,14.80
2022-10-29T18:14:26.928Z,14.13
2022-10-29T18:16:54.482Z,14.75
2022-10-29T18:19:24.676Z,14.60
2022-10-29T18:21:52.046Z,14.43
2022-10-29T18:24:21.132Z,14.73
2022-10-29T18:30:06.178Z,15.25
2022-10-29T18:32:34.068Z,18.40
2022-10-29T18:35:04.329Z,16.42
2022-10-29T18:37:32.091Z,15.15
2022-10-29T18:39:59.515Z,13.48
2022-10-29T18:42:30.014Z,15.63
2022-10-29T18:45:00.178Z,23.08
2022-10-29T18:47:28.019Z,16.48
2022-10-29T18:49:55.494Z,12.98
2022-10-29T18:52:23.026Z,15.75
2022-10-29T18:54:50.531Z,13.05
2022-10-29T18:57:19.424Z,11.82
2022-10-29T18:59:49.502Z,12.13
2022-10-29T19:02:19.768Z,13.48
2022-10-29T19:04:47.329Z,12.23
2022-10-29T19:07:14.966Z,12.32
2022-10-29T19:09:42.640Z,10.63
2022-10-29T19:12:12.879Z,10.95
2022-10-29T19:14:43.749Z,12.02
2022-10-29T19:17:11.363Z,11.50
2022-10-29T19:19:38.908Z,12.95
2022-10-29T19:22:06.494Z,10.70
2022-10-29T19:24:34.074Z,11.35
2022-10-29T19:27:02.517Z,10.77
2022-10-29T19:29:30.164Z,11.60
2022-10-29T19:31:59.090Z,10.52
2022-10-29T19:34:26.730Z,11.68
2022-10-29T19:36:56.848Z,10.63
2022-10-29T19:39:24.673Z,10.30
2022-10-29T19:41:54.123Z,9.82
2022-10-29T19:46:49.020Z,9.52
2022-10-29T19:49:16.751Z,10.85
2022-10-29T19:51:47.119Z,10.77
2022-10-29T19:54:20.113Z,10.77
2022-10-29T19:56:47.591Z,9.65
2022-10-29T19:59:15.181Z,10.25
2022-10-29T20:01:49.971Z,10.18
2022-10-29T20:04:17.560Z,11.90
2022-10-29T20:06:45.400Z,10.32
2022-10-29T20:09:13.036Z,11.10
2022-10-29T20:11:44.627Z,11.88
2022-10-29T20:14:12.291Z,9.52
2022-10-29T20:16:41.155Z,10.50
2022-10-29T20:19:09.016Z,8.82
2022-10-29T20:21:36.559Z,9.00
2022-10-29T20:24:04.375Z,8.90
2022-10-29T20:26:32.706Z,9.27
2022-10-29T20:29:00.418Z,9.73
2022-10-29T20:31:33.009Z,10.45
2022-10-29T20:34:03.459Z,9.38
2022-10-29T20:36:32.434Z,9.50
2022-10-29T20:39:00.140Z,11.45
2022-10-29T20:41:28.193Z,9.65
2022-10-29T20:43:57.031Z,9.07
2022-10-29T20:46:25.018Z,9.57
2022-10-29T20:48:52.811Z,10.25
2022-10-29T20:51:20.364Z,9.88
2022-10-29T20:53:50.590Z,9.70
2022-10-29T20:56:18.637Z,11.05
2022-10-29T20:58:49.083Z,10.40
2022-10-29T21:01:17.753Z,10.95
2022-10-29T21:03:45.308Z,9.77
2022-10-29T21:06:17.012Z,10.65
2022-10-29T21:08:45.654Z,10.45
2022-10-29T21:11:14.221Z,10.35
2022-10-29T21:13:42.107Z,9.60
2022-10-29T21:16:20.752Z,9.55
2022-10-29T21:18:49.660Z,10.88
2022-10-29T21:21:18.070Z,9.88
2022-10-29T21:23:47.420Z,10.40
2022-10-29T21:26:16.640Z,9.82
2022-10-29T21:28:50.305Z,10.27
2022-10-29T21:31:29.844Z,12.90
2022-10-29T21:34:03.687Z,11.60
2022-10-29T21:36:36.250Z,11.85
2022-10-29T21:39:05.753Z,11.30
2022-10-29T21:41:33.401Z,11.32
2022-10-29T21:44:00.892Z,10.82
2022-10-29T21:46:28.632Z,11.32
2022-10-29T21:48:56.906Z,11.32
2022-10-29T21:51:24.518Z,11.05
2022-10-29T21:53:55.358Z,12.60
2022-10-29T21:56:25.628Z,11.15
2022-10-29T21:58:56.547Z,11.75
2022-10-29T22:01:26.723Z,11.00
2022-10-29T22:03:54.512Z,11.68
2022-10-29T22:06:28.498Z,11.80
2022-10-29T22:08:59.375Z,11.52
2022-10-29T22:11:36.347Z,11.55
2022-10-29T22:14:06.220Z,11.38
2022-10-29T22:16:36.719Z,11.85
2022-10-29T22:19:04.427Z,11.32
2022-10-29T22:21:32.593Z,11.68
2022-10-29T22:24:07.696Z,11.75
2022-10-29T22:30:14.339Z,12.13
2022-10-29T22:39:17.812Z,12.48
2022-10-29T22:41:45.253Z,12.48
2022-10-29T22:44:12.904Z,11.63
2022-10-29T22:46:40.447Z,11.73
2022-10-29T22:49:12.510Z,14.07
2022-10-29T22:51:40.125Z,12.88
2022-10-29T22:54:07.702Z,12.27
2022-10-29T22:56:36.767Z,12.82
2022-10-29T22:59:05.939Z,12.13
2022-10-29T23:01:42.156Z,13.02
2022-10-29T23:04:13.345Z,13.38
2022-10-29T23:06:40.742Z,11.63
2022-10-29T23:09:28.913Z,11.98
2022-10-29T23:11:59.428Z,11.82
2022-10-29T23:14:33.349Z,12.23
2022-10-29T23:17:10.878Z,12.90
2022-10-29T23:19:49.166Z,14.07
2022-10-29T23:22:20.958Z,11.95
2022-10-29T23:24:54.095Z,13.23
2022-10-29T23:27:22.729Z,11.77
2022-10-29T23:29:58.607Z,12.20
2022-10-29T23:32:32.034Z,12.20
2022-10-29T23:35:09.762Z,12.18
2022-10-29T23:38:02.868Z,13.52
2022-10-29T23:41:01.894Z,13.80
2022-10-29T23:43:47.076Z,12.73
2022-10-29T23:46:17.955Z,13.70
2022-10-29T23:48:57.930Z,14.68
2022-10-29T23:51:40.013Z,13.70
2022-10-29T23:57:11.700Z,13.50
2022-10-29T23:59:48.792Z,14.73
